Time;durP1;ratioP1;P1;durP2;ratioP2;P2;SDS_P1;SDS_P2;PMS_P1;PMS_P2;Temp;Humidity;BMP_temperature;BMP_pressure;BME280_temperature;BME280_humidity;BME280_pressure;Samples;Min_cycle;Max_cycle;Signal;HPM_P1;HPM_P2
2022/01/06 00:00:43;;;;;;;10.90;5.07;;;4.90;99.90;;;;;;6137652;23;20397;-90
2022/01/06 00:03:11;;;;;;;7.70;3.10;;;5.00;99.90;;;;;;6139644;23;20435;-88
2022/01/06 00:05:38;;;;;;;5.83;2.87;;;5.10;99.90;;;;;;6136204;23;20439;-88
2022/01/06 00:08:05;;;;;;;7.23;3.90;;;5.00;99.90;;;;;;6138249;23;20519;-88
2022/01/06 00:10:32;;;;;;;11.30;4.50;;;5.00;99.90;;;;;;6140635;23;20403;-89
2022/01/06 00:13:10;;;;;;;5.60;4.00;;;5.10;99.90;;;;;;6136188;23;20406;-88
2022/01/06 00:15:43;;;;;;;9.00;2.97;;;5.10;99.90;;;;;;6143753;23;20396;-88
2022/01/06 00:18:22;;;;;;;5.60;3.17;;;5.10;99.90;;;;;;6140200;23;20426;-90
2022/01/06 00:23:38;;;;;;;6.70;3.67;;;5.00;99.90;;;;;;6142870;23;20383;-87
2022/01/06 00:26:06;;;;;;;13.57;4.30;;;5.00;99.90;;;;;;6151074;23;20405;-89
2022/01/06 00:28:33;;;;;;;7.87;3.60;;;5.00;99.90;;;;;;6140970;23;20463;-88
2022/01/06 00:31:01;;;;;;;7.00;3.60;;;5.00;99.90;;;;;;6141010;23;20422;-89
2022/01/06 00:33:31;;;;;;;7.73;3.60;;;5.00;99.90;;;;;;6137262;23;20410;-88
2022/01/06 00:35:58;;;;;;;5.47;3.80;;;5.00;99.90;;;;;;6153472;23;20466;-88
2022/01/06 00:38:26;;;;;;;9.50;4.30;;;5.00;99.90;;;;;;6146578;23;20471;-90
2022/01/06 00:40:53;;;;;;;7.60;4.47;;;5.10;99.90;;;;;;6144153;23;20412;-88
2022/01/06 00:43:20;;;;;;;4.80;3.33;;;5.10;99.90;;;;;;6137303;23;20403;-89
2022/01/06 00:45:48;;;;;;;10.07;3.87;;;5.10;99.90;;;;;;6136649;23;20733;-88
2022/01/06 00:48:15;;;;;;;6.93;3.30;;;5.10;99.90;;;;;;6136242;23;20443;-89
2022/01/06 00:50:44;;;;;;;9.20;2.83;;;5.10;99.90;;;;;;6143362;23;20411;-88
2022/01/06 00:53:11;;;;;;;6.87;3.60;;;5.00;99.90;;;;;;6138447;23;20419;-89
2022/01/06 00:55:39;;;;;;;5.47;3.17;;;5.00;99.90;;;;;;6144119;23;20929;-89
2022/01/06 00:58:07;;;;;;;6.10;3.70;;;5.00;99.90;;;;;;6139415;23;20455;-90
2022/01/06 01:00:38;;;;;;;9.10;3.30;;;4.90;99.90;;;;;;6139388;23;20405;-90
2022/01/06 01:03:06;;;;;;;7.73;4.07;;;4.90;99.90;;;;;;6137578;23;20415;-89
2022/01/06 01:05:33;;;;;;;5.97;3.20;;;4.90;99.90;;;;;;6134665;23;20403;-89
2022/01/06 01:08:01;;;;;;;9.30;3.97;;;5.00;99.90;;;;;;6133271;23;20451;-89
2022/01/06 01:10:28;;;;;;;8.17;3.33;;;4.90;99.90;;;;;;6131541;23;20425;-90
2022/01/06 01:12:55;;;;;;;5.10;3.30;;;5.00;99.90;;;;;;6133338;23;20408;-90
2022/01/06 01:15:23;;;;;;;3.40;2.70;;;5.00;99.90;;;;;;6132237;23;20438;-89
2022/01/06 01:17:51;;;;;;;8.43;3.73;;;5.00;99.90;;;;;;6131845;23;20435;-89
2022/01/06 01:20:19;;;;;;;6.37;3.30;;;5.00;99.90;;;;;;6132119;23;20416;-89
2022/01/06 01:22:46;;;;;;;6.57;3.97;;;5.00;99.90;;;;;;6132005;23;20416;-89
2022/01/06 01:25:15;;;;;;;7.93;3.70;;;5.00;99.90;;;;;;6130985;23;20511;-90
2022/01/06 01:27:44;;;;;;;9.00;3.53;;;5.10;99.90;;;;;;6131222;23;20436;-90
2022/01/06 01:30:14;;;;;;;8.47;4.20;;;5.10;99.90;;;;;;6136359;23;20404;-89
2022/01/06 01:32:48;;;;;;;7.33;3.93;;;5.10;99.90;;;;;;6140295;23;20468;-90
2022/01/06 01:35:16;;;;;;;9.07;4.37;;;5.10;99.90;;;;;;6132804;23;20399;-90
2022/01/06 01:37:42;;;;;;;6.10;3.60;;;5.10;99.90;;;;;;6138933;23;20438;-88
2022/01/06 01:40:11;;;;;;;4.07;3.67;;;5.10;99.90;;;;;;6133355;23;20404;-90
2022/01/06 01:42:40;;;;;;;8.13;3.97;;;5.10;99.90;;;;;;6132886;23;20412;-90
2022/01/06 01:45:09;;;;;;;8.73;3.70;;;5.00;99.90;;;;;;6131602;23;20418;-89
2022/01/06 01:47:40;;;;;;;7.43;3.70;;;5.00;99.90;;;;;;6132002;23;20495;-90
2022/01/06 01:50:15;;;;;;;7.03;4.10;;;5.00;99.90;;;;;;6135541;23;20459;-90
2022/01/06 01:52:44;;;;;;;4.80;3.77;;;5.00;99.90;;;;;;6142440;23;20407;-89
2022/01/06 01:55:13;;;;;;;9.03;3.30;;;5.00;99.90;;;;;;6151544;23;20451;-88
2022/01/06 01:57:42;;;;;;;5.63;3.80;;;5.00;99.90;;;;;;6143306;23;20444;-89
2022/01/06 02:00:11;;;;;;;5.30;3.23;;;5.00;99.90;;;;;;6148321;23;20494;-88
2022/01/06 02:02:38;;;;;;;6.60;4.00;;;5.00;99.90;;;;;;6148366;23;20432;-89
2022/01/06 02:05:06;;;;;;;4.37;3.97;;;4.90;99.90;;;;;;6149211;23;20445;-88
2022/01/06 02:07:33;;;;;;;6.27;3.60;;;4.90;99.90;;;;;;6143483;23;20445;-90
2022/01/06 02:10:00;;;;;;;4.03;3.33;;;5.00;99.90;;;;;;6152910;23;20444;-88
2022/01/06 02:12:30;;;;;;;6.23;3.07;;;5.00;99.90;;;;;;6152279;23;20403;-89
2022/01/06 02:17:41;;;;;;;8.60;4.13;;;5.00;99.90;;;;;;6126120;23;20430;-89
2022/01/06 02:20:13;;;;;;;7.13;3.33;;;5.00;99.90;;;;;;6154046;23;20395;-88
2022/01/06 02:22:40;;;;;;;9.07;3.40;;;5.00;99.90;;;;;;6136900;23;20406;-90
2022/01/06 02:25:12;;;;;;;7.63;4.43;;;5.10;99.90;;;;;;6133364;23;20482;-90
2022/01/06 02:27:39;;;;;;;8.13;3.70;;;5.10;99.90;;;;;;6132108;23;20493;-89
2022/01/06 02:30:07;;;;;;;12.40;3.87;;;5.10;99.90;;;;;;6132013;23;20770;-90
2022/01/06 02:32:34;;;;;;;4.13;3.43;;;5.10;99.90;;;;;;6132013;23;20416;-90
2022/01/06 02:35:05;;;;;;;7.23;4.00;;;5.10;99.90;;;;;;6132177;23;20435;-89
2022/01/06 02:37:33;;;;;;;5.60;4.30;;;5.00;99.90;;;;;;6134069;23;20427;-88
2022/01/06 02:40:00;;;;;;;6.43;3.80;;;5.00;99.90;;;;;;6133663;23;20404;-90
2022/01/06 02:42:28;;;;;;;10.23;3.50;;;5.00;99.90;;;;;;6135661;23;20413;-89
2022/01/06 02:44:54;;;;;;;9.43;4.03;;;4.90;99.90;;;;;;6137119;23;20407;-88
2022/01/06 02:47:21;;;;;;;6.30;3.70;;;5.00;99.90;;;;;;6131033;23;20435;-88
2022/01/06 02:49:48;;;;;;;5.37;3.73;;;5.00;99.90;;;;;;6132081;23;21017;-87
2022/01/06 02:52:15;;;;;;;6.37;3.70;;;4.90;99.90;;;;;;6138091;23;20391;-88
2022/01/06 02:54:43;;;;;;;8.47;3.60;;;4.90;99.90;;;;;;6137463;23;20411;-88
2022/01/06 02:57:10;;;;;;;7.23;3.67;;;4.90;99.90;;;;;;6130626;23;20450;-88
2022/01/06 02:59:37;;;;;;;7.00;3.43;;;4.90;99.90;;;;;;6131558;23;20451;-88
2022/01/06 03:02:04;;;;;;;7.03;3.20;;;5.00;99.90;;;;;;6131034;23;20755;-88
2022/01/06 03:04:30;;;;;;;6.47;3.20;;;5.00;99.90;;;;;;6134723;23;20473;-88
2022/01/06 03:06:58;;;;;;;6.87;3.83;;;5.00;99.90;;;;;;6132122;23;20462;-89
2022/01/06 03:09:36;;;;;;;6.50;3.80;;;5.00;99.90;;;;;;6133235;23;20443;-90
2022/01/06 03:12:07;;;;;;;8.17;4.00;;;4.90;99.90;;;;;;6131899;23;20906;-90
2022/01/06 03:14:33;;;;;;;8.40;3.73;;;4.90;99.90;;;;;;6130638;23;20420;-90
2022/01/06 03:17:00;;;;;;;4.50;3.07;;;5.00;99.90;;;;;;6130011;23;20498;-90
2022/01/06 03:19:27;;;;;;;6.70;4.10;;;5.10;99.90;;;;;;6130204;23;20741;-90
2022/01/06 03:21:54;;;;;;;4.13;2.63;;;5.10;99.90;;;;;;6129647;23;20831;-89
2022/01/06 03:24:21;;;;;;;5.50;3.53;;;5.10;99.90;;;;;;6132564;23;20412;-90
2022/01/06 03:26:48;;;;;;;4.50;4.10;;;5.20;99.90;;;;;;6130179;23;20954;-90
2022/01/06 03:29:16;;;;;;;5.57;5.07;;;5.20;99.90;;;;;;6129297;23;20445;-89
2022/01/06 03:31:43;;;;;;;4.70;3.43;;;5.30;99.90;;;;;;6130188;23;20421;-89
2022/01/06 03:34:10;;;;;;;7.93;3.90;;;5.30;99.90;;;;;;6129620;23;20396;-90
2022/01/06 03:36:37;;;;;;;5.93;3.40;;;5.30;99.90;;;;;;6132744;23;20438;-90
2022/01/06 03:39:04;;;;;;;6.87;3.67;;;5.20;99.90;;;;;;6131691;23;20423;-90
2022/01/06 03:41:32;;;;;;;6.27;4.00;;;5.10;99.90;;;;;;6152626;23;20411;-87
2022/01/06 03:43:59;;;;;;;5.20;3.20;;;5.10;99.90;;;;;;6152683;23;20403;-90
2022/01/06 03:46:27;;;;;;;4.67;3.20;;;5.00;99.90;;;;;;6151714;23;20424;-89
2022/01/06 03:48:54;;;;;;;4.17;3.30;;;5.00;99.90;;;;;;6137633;23;20446;-90
2022/01/06 03:51:23;;;;;;;9.17;4.20;;;4.90;99.90;;;;;;6139800;23;20421;-90
2022/01/06 03:53:50;;;;;;;5.03;4.00;;;4.90;99.90;;;;;;6140346;23;20415;-89
2022/01/06 03:56:17;;;;;;;4.63;3.20;;;5.00;99.90;;;;;;6142466;23;20430;-88
2022/01/06 03:58:44;;;;;;;5.83;3.57;;;4.90;99.90;;;;;;6136554;23;20487;-87
2022/01/06 04:01:11;;;;;;;6.57;3.70;;;5.00;99.90;;;;;;6134009;23;20499;-89
2022/01/06 04:03:40;;;;;;;8.00;4.73;;;5.00;99.90;;;;;;6134149;23;20419;-90
2022/01/06 04:06:07;;;;;;;5.33;3.33;;;4.90;99.90;;;;;;6147724;23;20421;-89
2022/01/06 04:08:34;;;;;;;5.30;3.30;;;4.90;99.90;;;;;;6154756;23;20424;-89
2022/01/06 04:11:01;;;;;;;3.97;3.40;;;4.90;99.90;;;;;;6148367;23;20471;-90
2022/01/06 04:13:27;;;;;;;4.27;3.17;;;5.00;99.90;;;;;;6155155;23;20402;-86
2022/01/06 04:15:54;;;;;;;7.23;5.10;;;5.00;99.90;;;;;;6150729;23;20407;-89
2022/01/06 04:18:21;;;;;;;7.90;3.93;;;5.10;99.90;;;;;;6138081;23;20502;-89
2022/01/06 04:20:49;;;;;;;5.17;3.67;;;5.10;99.90;;;;;;6136068;23;20411;-88
2022/01/06 04:23:21;;;;;;;4.83;3.70;;;5.10;99.90;;;;;;6133867;23;20419;-88
2022/01/06 04:25:48;;;;;;;9.30;3.90;;;5.10;99.90;;;;;;6133003;23;20921;-87
2022/01/06 04:28:14;;;;;;;5.60;4.03;;;5.10;99.90;;;;;;6133375;23;20427;-88
2022/01/06 04:30:41;;;;;;;7.63;5.20;;;5.10;99.90;;;;;;6132355;23;20447;-87
2022/01/06 04:33:08;;;;;;;4.87;3.37;;;5.10;99.90;;;;;;6134009;23;20917;-88
2022/01/06 04:35:35;;;;;;;11.40;3.80;;;5.10;99.90;;;;;;6131653;23;20396;-88
2022/01/06 04:38:03;;;;;;;4.97;3.67;;;5.10;99.90;;;;;;6131060;23;20518;-87
2022/01/06 04:40:30;;;;;;;5.20;3.97;;;5.10;99.90;;;;;;6136493;23;20407;-88
2022/01/06 04:42:57;;;;;;;5.43;3.27;;;5.20;99.90;;;;;;6133853;23;20446;-88
2022/01/06 04:45:23;;;;;;;5.13;4.37;;;5.10;99.90;;;;;;6132371;23;20391;-88
2022/01/06 04:47:50;;;;;;;10.13;4.37;;;5.10;99.90;;;;;;6130447;23;20527;-89
2022/01/06 04:50:17;;;;;;;4.13;3.23;;;5.10;99.90;;;;;;6131532;23;20450;-88
2022/01/06 04:52:44;;;;;;;4.30;3.17;;;5.10;99.90;;;;;;6132223;23;20439;-89
2022/01/06 04:55:12;;;;;;;7.50;5.10;;;5.00;99.90;;;;;;6141124;23;20921;-88
2022/01/06 04:57:39;;;;;;;6.63;4.50;;;5.00;99.90;;;;;;6131886;23;20945;-89
2022/01/06 05:00:08;;;;;;;6.60;4.00;;;5.00;99.90;;;;;;6132661;23;20414;-88
2022/01/06 05:02:35;;;;;;;4.17;3.27;;;5.00;99.90;;;;;;6131333;23;20434;-88
2022/01/06 05:05:02;;;;;;;8.83;3.80;;;5.10;99.90;;;;;;6132281;23;20399;-90
2022/01/06 05:07:29;;;;;;;7.70;3.90;;;5.10;99.90;;;;;;6131690;23;20438;-88
2022/01/06 05:09:55;;;;;;;4.43;4.03;;;5.00;99.90;;;;;;6133580;23;20961;-87
2022/01/06 05:12:24;;;;;;;8.80;4.20;;;5.00;99.90;;;;;;6130536;23;20396;-87
2022/01/06 05:14:50;;;;;;;6.30;3.87;;;5.00;99.90;;;;;;6134745;23;20405;-88
2022/01/06 05:17:19;;;;;;;7.93;4.20;;;5.00;99.90;;;;;;6148504;23;21003;-87
2022/01/06 05:19:45;;;;;;;5.20;3.73;;;5.00;99.90;;;;;;6144744;23;20408;-88
2022/01/06 05:22:12;;;;;;;8.60;3.60;;;4.90;99.90;;;;;;6139463;23;20409;-89
2022/01/06 05:24:39;;;;;;;5.13;4.50;;;4.90;99.90;;;;;;6136666;23;20406;-88
2022/01/06 05:27:09;;;;;;;4.80;3.67;;;4.90;99.90;;;;;;6133079;23;20435;-89
2022/01/06 05:29:38;;;;;;;6.93;3.70;;;4.90;99.90;;;;;;6146314;23;20412;-89
2022/01/06 05:32:05;;;;;;;7.20;4.90;;;4.90;99.90;;;;;;6143427;23;20419;-88
2022/01/06 05:34:32;;;;;;;10.33;4.20;;;4.80;99.90;;;;;;6134214;23;20802;-89
2022/01/06 05:36:59;;;;;;;6.93;3.30;;;4.80;99.90;;;;;;6132454;23;20511;-89
2022/01/06 05:39:26;;;;;;;5.23;3.10;;;4.80;99.90;;;;;;6144239;23;20420;-87
2022/01/06 05:41:52;;;;;;;6.37;3.83;;;4.80;99.90;;;;;;6142650;23;20435;-89
2022/01/06 05:44:19;;;;;;;4.63;4.03;;;4.80;99.90;;;;;;6138460;23;20407;-89
2022/01/06 05:49:29;;;;;;;4.40;4.00;;;4.90;99.90;;;;;;6130471;23;20882;-89
2022/01/06 05:51:56;;;;;;;9.67;5.07;;;5.00;99.90;;;;;;6142492;23;20494;-88
2022/01/06 05:54:23;;;;;;;5.97;3.80;;;5.00;99.90;;;;;;6141069;23;20499;-82
2022/01/06 05:56:50;;;;;;;5.23;3.70;;;5.00;99.90;;;;;;6132242;23;20431;-80
2022/01/06 05:59:16;;;;;;;7.67;4.13;;;5.00;99.90;;;;;;6133180;23;20411;-79
2022/01/06 06:04:36;;;;;;;3.87;3.43;;;5.00;99.90;;;;;;6130129;23;20443;-88
2022/01/06 06:07:03;;;;;;;9.57;3.67;;;5.00;99.90;;;;;;6133406;23;20435;-88
2022/01/06 06:09:34;;;;;;;6.50;3.47;;;5.00;99.90;;;;;;6144600;23;20426;-88
2022/01/06 06:12:03;;;;;;;10.43;4.60;;;5.10;99.90;;;;;;6136971;23;20403;-87
2022/01/06 06:14:33;;;;;;;6.87;3.50;;;5.10;99.90;;;;;;6136698;23;20410;-87
2022/01/06 06:17:01;;;;;;;8.43;3.50;;;5.10;99.90;;;;;;6148226;23;20473;-87
2022/01/06 06:19:28;;;;;;;3.50;3.20;;;5.10;99.90;;;;;;6151382;23;20395;-87
2022/01/06 06:21:55;;;;;;;8.20;3.70;;;5.10;99.90;;;;;;6152397;23;20398;-87
2022/01/06 06:24:23;;;;;;;4.60;3.63;;;5.10;99.90;;;;;;6152133;23;20473;-88
2022/01/06 06:26:50;;;;;;;8.03;4.33;;;5.10;99.90;;;;;;6144259;23;20442;-89
2022/01/06 06:29:19;;;;;;;8.63;3.77;;;5.10;99.90;;;;;;6137740;23;20471;-89
2022/01/06 06:31:46;;;;;;;7.93;4.43;;;5.00;99.90;;;;;;6132308;23;20535;-89
2022/01/06 06:34:14;;;;;;;7.80;3.87;;;5.00;99.90;;;;;;6135491;23;20418;-88
2022/01/06 06:36:41;;;;;;;6.30;3.77;;;5.00;99.90;;;;;;6132760;23;20427;-89
2022/01/06 06:39:08;;;;;;;9.17;3.33;;;5.10;99.90;;;;;;6129610;23;20412;-89
2022/01/06 06:41:35;;;;;;;4.50;3.50;;;5.10;99.90;;;;;;6128633;23;20765;-89
2022/01/06 06:44:02;;;;;;;4.07;3.40;;;5.00;99.90;;;;;;6129086;23;20416;-89
2022/01/06 06:46:29;;;;;;;10.90;3.57;;;5.00;99.90;;;;;;6129358;23;20929;-89
2022/01/06 06:48:56;;;;;;;8.43;4.50;;;5.10;99.90;;;;;;6151584;23;20427;-88
2022/01/06 06:51:24;;;;;;;5.60;3.80;;;5.10;99.90;;;;;;6148904;23;20443;-88
2022/01/06 06:53:50;;;;;;;7.33;3.70;;;5.10;99.90;;;;;;6148170;23;20962;-89
2022/01/06 06:56:17;;;;;;;8.83;4.30;;;5.10;99.90;;;;;;6132209;23;20918;-88
2022/01/06 06:58:44;;;;;;;14.87;4.57;;;5.00;99.90;;;;;;6130728;23;20895;-89
2022/01/06 07:01:11;;;;;;;7.17;3.80;;;4.90;99.90;;;;;;6130931;23;20415;-89
2022/01/06 07:03:37;;;;;;;4.50;3.80;;;4.80;99.90;;;;;;6129763;23;20414;-89
2022/01/06 07:06:04;;;;;;;7.50;4.10;;;4.80;99.90;;;;;;6128754;23;20418;-89
2022/01/06 07:08:32;;;;;;;7.27;5.30;;;4.80;99.90;;;;;;6129553;23;20409;-88
2022/01/06 07:10:59;;;;;;;6.03;4.10;;;4.80;99.90;;;;;;6132886;23;20454;-89
2022/01/06 07:13:26;;;;;;;7.13;4.50;;;4.80;99.90;;;;;;6130999;23;20407;-89
2022/01/06 07:15:53;;;;;;;10.63;4.10;;;4.80;99.90;;;;;;6129186;23;20407;-89
2022/01/06 07:18:20;;;;;;;8.63;3.57;;;4.80;99.90;;;;;;6130003;23;20745;-89
2022/01/06 07:20:47;;;;;;;7.73;4.07;;;4.90;99.90;;;;;;6129952;23;20434;-89
2022/01/06 07:23:14;;;;;;;6.23;3.80;;;4.80;99.90;;;;;;6130065;23;20411;-88
2022/01/06 07:25:42;;;;;;;10.50;4.50;;;4.70;99.90;;;;;;6130612;23;20422;-88
2022/01/06 07:28:09;;;;;;;5.73;4.03;;;4.70;99.90;;;;;;6149327;23;20430;-89
2022/01/06 07:30:36;;;;;;;8.67;4.40;;;4.70;99.90;;;;;;6152743;23;20539;-88
2022/01/06 07:33:03;;;;;;;7.20;3.43;;;4.70;99.90;;;;;;6149557;23;20414;-88
2022/01/06 07:35:30;;;;;;;7.77;3.80;;;4.70;99.90;;;;;;6133475;23;20416;-88
2022/01/06 07:37:57;;;;;;;7.20;4.00;;;4.60;99.90;;;;;;6130772;23;20439;-90
2022/01/06 07:40:23;;;;;;;5.67;3.93;;;4.60;99.90;;;;;;6141393;23;20504;-89
2022/01/06 07:42:52;;;;;;;8.07;3.20;;;4.60;99.90;;;;;;6131442;23;20460;-88
2022/01/06 07:45:19;;;;;;;8.83;4.03;;;4.60;99.90;;;;;;6130345;23;20422;-89
2022/01/06 07:47:56;;;;;;;7.10;4.50;;;4.50;99.90;;;;;;6130225;23;20939;-89
2022/01/06 07:50:28;;;;;;;7.43;4.20;;;4.50;99.90;;;;;;6129277;23;20466;-89
2022/01/06 07:52:55;;;;;;;8.40;3.60;;;4.40;99.90;;;;;;6128882;23;20402;-88
2022/01/06 07:55:21;;;;;;;8.07;4.20;;;4.50;99.90;;;;;;6127792;23;20803;-89
2022/01/06 07:57:51;;;;;;;8.37;3.90;;;4.40;99.90;;;;;;6127774;23;20474;-89
2022/01/06 08:00:18;;;;;;;7.53;3.50;;;4.30;99.90;;;;;;6129147;23;20469;-88
2022/01/06 08:02:46;;;;;;;10.30;6.20;;;4.40;99.90;;;;;;6142632;23;20434;-88
2022/01/06 08:05:31;;;;;;;10.80;4.73;;;4.50;99.90;;;;;;6142718;23;20400;-90
2022/01/06 08:07:59;;;;;;;8.57;4.70;;;4.50;99.90;;;;;;6144472;23;20473;-89
2022/01/06 08:10:27;;;;;;;10.93;3.83;;;4.50;99.90;;;;;;6141324;23;20748;-89
2022/01/06 08:12:57;;;;;;;9.67;4.23;;;4.50;99.90;;;;;;6139467;23;20507;-89
2022/01/06 08:15:28;;;;;;;12.67;4.17;;;4.60;99.90;;;;;;6136912;23;20420;-90
2022/01/06 08:17:58;;;;;;;7.10;4.90;;;4.60;99.90;;;;;;6131190;23;20446;-89
2022/01/06 08:20:35;;;;;;;11.57;4.93;;;4.70;99.90;;;;;;6129064;23;20412;-90
2022/01/06 08:23:02;;;;;;;7.07;3.97;;;4.70;99.90;;;;;;6147896;23;20438;-88
2022/01/06 08:25:29;;;;;;;9.43;4.63;;;4.70;99.90;;;;;;6146736;23;20443;-91
2022/01/06 08:27:58;;;;;;;8.37;4.37;;;4.80;99.90;;;;;;6144857;23;20930;-91
2022/01/06 08:30:26;;;;;;;7.77;4.60;;;5.10;99.90;;;;;;6138120;23;20435;-90
2022/01/06 08:32:55;;;;;;;5.70;5.07;;;5.20;99.90;;;;;;6135591;23;20434;-91
2022/01/06 08:35:24;;;;;;;9.33;4.63;;;5.40;99.90;;;;;;6147527;23;20400;-90
2022/01/06 08:37:51;;;;;;;9.30;5.20;;;5.50;99.90;;;;;;6151523;23;20431;-90
2022/01/06 08:40:21;;;;;;;9.43;5.17;;;5.70;99.90;;;;;;6141035;23;20446;-90
2022/01/06 08:42:48;;;;;;;9.93;5.40;;;5.80;99.90;;;;;;6147682;23;20939;-91
2022/01/06 08:45:18;;;;;;;7.67;5.03;;;5.80;99.90;;;;;;6135488;23;20415;-90
2022/01/06 08:47:46;;;;;;;5.67;4.30;;;5.70;99.90;;;;;;6130816;23;20447;-88
2022/01/06 08:50:13;;;;;;;7.33;4.40;;;5.60;99.90;;;;;;6133435;23;20764;-88
2022/01/06 08:52:41;;;;;;;8.07;4.23;;;5.50;99.90;;;;;;6133949;23;20431;-88
2022/01/06 08:55:09;;;;;;;9.00;5.00;;;5.50;99.90;;;;;;6140346;23;20446;-90
2022/01/06 08:57:36;;;;;;;8.77;5.43;;;5.60;99.90;;;;;;6149414;23;20450;-88
2022/01/06 09:00:07;;;;;;;10.20;4.70;;;5.80;99.90;;;;;;6148794;23;20415;-89
2022/01/06 09:02:35;;;;;;;6.47;5.20;;;5.90;99.90;;;;;;6139711;23;20426;-89
2022/01/06 09:05:05;;;;;;;14.57;5.50;;;6.20;99.90;;;;;;6138036;23;20419;-89
2022/01/06 09:07:40;;;;;;;8.77;4.73;;;6.20;99.90;;;;;;6142402;23;20431;-88
2022/01/06 09:10:09;;;;;;;8.27;6.30;;;6.00;99.90;;;;;;6140655;23;20438;-88
2022/01/06 09:12:36;;;;;;;6.17;5.37;;;5.80;99.90;;;;;;6140552;23;20415;-88
2022/01/06 09:15:04;;;;;;;8.57;5.10;;;5.80;99.90;;;;;;6140482;23;20515;-88
2022/01/06 09:17:35;;;;;;;9.37;5.20;;;5.70;99.90;;;;;;6139973;23;20434;-88
2022/01/06 09:20:05;;;;;;;13.20;5.13;;;5.70;99.90;;;;;;6148194;23;20392;-87
2022/01/06 09:22:35;;;;;;;18.20;4.87;;;5.70;99.90;;;;;;6153724;23;20416;-88
2022/01/06 09:25:03;;;;;;;7.97;4.53;;;5.60;99.90;;;;;;6153369;23;20408;-89
2022/01/06 09:27:30;;;;;;;9.80;5.17;;;5.70;99.90;;;;;;6152886;23;20438;-89
2022/01/06 09:29:57;;;;;;;7.00;5.00;;;5.70;99.90;;;;;;6153346;23;20426;-89
2022/01/06 09:32:24;;;;;;;10.00;4.90;;;5.70;99.90;;;;;;6152494;23;20451;-87
2022/01/06 09:34:51;;;;;;;10.50;4.43;;;5.80;99.90;;;;;;6147049;23;20467;-89
2022/01/06 09:37:20;;;;;;;7.63;5.10;;;6.10;99.90;;;;;;6135476;23;20415;-90
2022/01/06 09:39:47;;;;;;;7.37;4.43;;;6.50;99.90;;;;;;6135378;23;20412;-90
2022/01/06 09:42:14;;;;;;;7.70;5.00;;;6.80;99.90;;;;;;6134860;23;20450;-90
2022/01/06 09:44:41;;;;;;;9.83;4.27;;;6.90;99.90;;;;;;6147801;23;20394;-89
2022/01/06 09:47:09;;;;;;;10.37;4.67;;;7.00;99.90;;;;;;6135777;23;20446;-87
2022/01/06 09:49:38;;;;;;;9.00;4.40;;;7.30;99.90;;;;;;6132487;23;20494;-87
2022/01/06 09:52:06;;;;;;;5.43;4.00;;;7.30;99.90;;;;;;6139477;23;20942;-88
2022/01/06 09:54:36;;;;;;;7.77;3.83;;;7.20;99.90;;;;;;6135833;23;20422;-89
2022/01/06 09:57:04;;;;;;;6.60;3.47;;;7.10;99.90;;;;;;6137522;23;20442;-88
2022/01/06 09:59:31;;;;;;;7.30;4.40;;;7.00;99.90;;;;;;6153077;23;20463;-87
2022/01/06 10:02:02;;;;;;;9.77;4.47;;;7.00;99.90;;;;;;6148151;23;20487;-87
2022/01/06 10:04:29;;;;;;;5.53;4.00;;;6.90;99.90;;;;;;6147072;23;20411;-88
2022/01/06 10:07:04;;;;;;;10.10;3.77;;;6.80;99.90;;;;;;6150611;23;20487;-88
2022/01/06 10:09:33;;;;;;;5.70;4.37;;;6.80;99.90;;;;;;6137755;23;20403;-89
2022/01/06 10:12:03;;;;;;;8.67;4.33;;;7.00;99.90;;;;;;6136301;23;20455;-89
2022/01/06 10:14:40;;;;;;;6.33;3.60;;;7.10;99.90;;;;;;6136671;23;20407;-89
2022/01/06 10:17:07;;;;;;;4.70;3.50;;;7.10;99.90;;;;;;6135248;23;20483;-90
2022/01/06 10:19:40;;;;;;;5.83;3.10;;;7.00;99.90;;;;;;6135178;23;20418;-90
2022/01/06 10:22:18;;;;;;;12.90;5.03;;;6.90;99.90;;;;;;6139734;23;20400;-88
2022/01/06 10:27:49;;;;;;;8.80;4.13;;;7.30;99.90;;;;;;6149048;23;20463;-88
2022/01/06 10:30:25;;;;;;;11.03;4.40;;;7.50;99.90;;;;;;6136008;23;20396;-89
2022/01/06 10:33:02;;;;;;;10.10;4.20;;;7.50;99.90;;;;;;6108889;23;20438;-90
2022/01/06 10:35:50;;;;;;;7.00;3.70;;;7.90;99.90;;;;;;6147412;23;20483;-89
2022/01/06 10:38:28;;;;;;;8.40;5.43;;;7.90;99.90;;;;;;6135170;23;20462;-90
2022/01/06 10:41:08;;;;;;;8.00;3.43;;;8.10;99.90;;;;;;6132045;23;20414;-89
2022/01/06 10:43:36;;;;;;;9.63;5.27;;;7.90;99.90;;;;;;6131203;23;20469;-88
2022/01/06 10:46:04;;;;;;;8.60;4.40;;;7.60;99.90;;;;;;6143224;23;20415;-86
2022/01/06 10:48:32;;;;;;;6.80;4.10;;;7.50;99.90;;;;;;6142581;23;20494;-84
2022/01/06 10:50:59;;;;;;;5.77;3.67;;;7.40;99.90;;;;;;6137630;23;20455;-85
2022/01/06 10:53:26;;;;;;;8.63;3.80;;;7.30;99.90;;;;;;6132127;23;20428;-86
2022/01/06 10:55:53;;;;;;;8.20;3.27;;;7.20;99.90;;;;;;6131771;23;21246;-86
2022/01/06 10:58:22;;;;;;;9.10;3.57;;;7.30;99.90;;;;;;6133732;23;20399;-85
2022/01/06 11:00:58;;;;;;;7.80;3.60;;;7.50;99.90;;;;;;6133377;23;20416;-86
2022/01/06 11:03:27;;;;;;;4.63;3.47;;;7.70;99.90;;;;;;6130003;23;20504;-87
2022/01/06 11:05:57;;;;;;;10.40;4.47;;;8.20;99.90;;;;;;6129252;23;20400;-86
2022/01/06 11:08:27;;;;;;;7.40;3.40;;;8.60;99.50;;;;;;6131880;23;20404;-86
2022/01/06 11:11:16;;;;;;;9.23;3.43;;;8.70;98.70;;;;;;6133211;23;20400;-83
2022/01/06 11:13:45;;;;;;;8.30;3.20;;;8.80;98.60;;;;;;6135914;23;20463;-86
2022/01/06 11:16:15;;;;;;;9.93;3.53;;;8.90;97.90;;;;;;6138149;23;20411;-84
2022/01/06 11:18:43;;;;;;;5.50;2.93;;;9.10;98.10;;;;;;6137410;23;20407;-82
2022/01/06 11:21:13;;;;;;;9.00;3.40;;;10.40;96.70;;;;;;6137990;23;20407;-83
2022/01/06 11:23:40;;;;;;;6.67;3.00;;;12.00;93.80;;;;;;6135349;23;20455;-85
2022/01/06 11:26:11;;;;;;;5.00;2.90;;;13.30;90.10;;;;;;6136674;23;20500;-85
2022/01/06 11:28:38;;;;;;;6.30;3.23;;;15.20;86.00;;;;;;6135277;23;20736;-84
2022/01/06 11:31:18;;;;;;;4.10;2.70;;;17.20;76.60;;;;;;6136510;23;20410;-83
2022/01/06 11:33:46;;;;;;;4.87;2.33;;;16.40;70.90;;;;;;6138725;23;20438;-87
2022/01/06 11:36:20;;;;;;;10.70;4.43;;;17.80;71.20;;;;;;6131265;23;20442;-87
2022/01/06 11:38:48;;;;;;;8.10;3.20;;;19.30;64.30;;;;;;6127212;23;20411;-87
2022/01/06 11:41:15;;;;;;;5.30;2.80;;;20.80;59.40;;;;;;6126516;23;20431;-87
2022/01/06 11:43:45;;;;;;;8.47;2.93;;;22.20;56.00;;;;;;6131762;23;20439;-85
2022/01/06 11:46:12;;;;;;;7.17;3.43;;;23.40;53.10;;;;;;6128699;23;20411;-88
2022/01/06 11:48:48;;;;;;;6.57;3.20;;;23.20;51.60;;;;;;6127987;23;20473;-87
2022/01/06 11:51:26;;;;;;;7.30;3.07;;;24.50;50.10;;;;;;6125792;23;20403;-88
2022/01/06 11:53:53;;;;;;;5.37;3.03;;;24.80;47.50;;;;;;6126157;23;20801;-87
2022/01/06 11:56:21;;;;;;;6.43;2.53;;;25.40;46.80;;;;;;6146260;23;20403;-86
2022/01/06 11:58:58;;;;;;;5.03;3.70;;;24.00;45.90;;;;;;6145175;23;20406;-92
2022/01/06 12:01:25;;;;;;;13.07;3.70;;;21.50;47.70;;;;;;6127801;23;20393;-84
2022/01/06 12:03:54;;;;;;;6.80;3.40;;;18.80;50.80;;;;;;6129892;23;20906;-85
2022/01/06 12:06:27;;;;;;;5.37;2.93;;;16.60;54.00;;;;;;6130808;23;20455;-84
2022/01/06 12:08:55;;;;;;;5.70;2.90;;;14.40;58.00;;;;;;6128459;23;20411;-84
2022/01/06 12:11:26;;;;;;;8.50;3.77;;;12.80;63.00;;;;;;6131450;23;20444;-84
2022/01/06 12:13:54;;;;;;;8.10;3.57;;;11.80;67.30;;;;;;6140700;23;20423;-84
2022/01/06 12:16:26;;;;;;;6.60;2.83;;;11.10;71.10;;;;;;6148915;23;20403;-83
2022/01/06 12:18:55;;;;;;;7.53;3.87;;;10.50;74.10;;;;;;6147966;23;20435;-87
2022/01/06 12:21:22;;;;;;;9.40;3.13;;;10.00;76.40;;;;;;6145686;23;20391;-87
2022/01/06 12:24:00;;;;;;;5.40;2.70;;;9.50;80.40;;;;;;6147928;23;20431;-88
2022/01/06 12:26:27;;;;;;;8.70;3.40;;;9.30;81.50;;;;;;6135141;23;20395;-86
2022/01/06 12:28:53;;;;;;;8.70;3.77;;;9.10;82.80;;;;;;6132482;23;21024;-87
2022/01/06 12:31:22;;;;;;;7.57;3.83;;;8.90;84.20;;;;;;6132263;23;20407;-87
2022/01/06 12:33:50;;;;;;;6.10;3.40;;;8.70;85.70;;;;;;6134346;23;20424;-86
2022/01/06 12:36:20;;;;;;;8.10;3.37;;;9.10;87.20;;;;;;6142276;23;20407;-87
2022/01/06 12:38:48;;;;;;;4.13;3.00;;;10.20;83.20;;;;;;6129084;23;20400;-87
2022/01/06 12:41:16;;;;;;;9.87;3.60;;;10.50;80.20;;;;;;6128899;23;20400;-85
2022/01/06 12:43:44;;;;;;;8.83;2.83;;;10.10;80.40;;;;;;6129316;23;20970;-85
2022/01/06 12:46:12;;;;;;;7.47;3.07;;;9.90;83.70;;;;;;6128595;23;20471;-84
2022/01/06 12:48:41;;;;;;;14.03;3.20;;;10.40;82.00;;;;;;6129382;23;20462;-84
2022/01/06 12:51:10;;;;;;;10.23;3.53;;;10.70;80.40;;;;;;6129950;23;20946;-84
2022/01/06 12:53:40;;;;;;;12.80;5.67;;;11.00;79.40;;;;;;6127292;23;20965;-85
2022/01/06 12:56:07;;;;;;;11.70;4.30;;;11.40;78.60;;;;;;6128189;23;20470;-87
2022/01/06 12:58:36;;;;;;;6.53;3.70;;;12.00;76.40;;;;;;6129755;23;20796;-87
2022/01/06 13:01:05;;;;;;;8.10;5.03;;;12.00;74.70;;;;;;6132830;23;20444;-87
2022/01/06 13:03:35;;;;;;;12.40;3.90;;;12.70;74.20;;;;;;6133414;23;21050;-87
2022/01/06 13:06:03;;;;;;;11.13;3.73;;;12.60;71.70;;;;;;6138917;23;20665;-89
2022/01/06 13:08:31;;;;;;;5.80;2.70;;;12.60;70.70;;;;;;6143443;23;21075;-86
2022/01/06 13:11:05;;;;;;;9.17;2.67;;;12.80;70.20;;;;;;6132463;23;20439;-87
2022/01/06 13:13:32;;;;;;;4.00;2.10;;;13.90;68.90;;;;;;6133138;23;20447;-85
2022/01/06 13:15:59;;;;;;;8.20;3.30;;;14.10;65.30;;;;;;6132582;23;20411;-87